sensor_id;sensor_type;location;lat;lon;timestamp;P1;durP1;ratioP1;P2;durP2;ratioP2
71091;SDS011;58751;50.708;7.134;2023-05-10T00:02:04;0.93;;;0.93;;
71091;SDS011;58751;50.708;7.134;2023-05-10T00:04:29;1.00;;;0.90;;
71091;SDS011;58751;50.708;7.134;2023-05-10T00:06:54;0.80;;;0.80;;
71091;SDS011;58751;50.708;7.134;2023-05-10T00:09:21;0.90;;;0.90;;
71091;SDS011;58751;50.708;7.134;2023-05-10T00:11:46;1.25;;;0.45;;
71091;SDS011;58751;50.708;7.134;2023-05-10T00:14:11;0.63;;;0.60;;
71091;SDS011;58751;50.708;7.134;2023-05-10T00:16:37;2.47;;;1.00;;
71091;SDS011;58751;50.708;7.134;2023-05-10T00:19:02;0.80;;;0.80;;
71091;SDS011;58751;50.708;7.134;2023-05-10T00:21:27;1.80;;;0.90;;
71091;SDS011;58751;50.708;7.134;2023-05-10T00:23:52;1.70;;;1.07;;
71091;SDS011;58751;50.708;7.134;2023-05-10T00:26:19;1.80;;;1.10;;
71091;SDS011;58751;50.708;7.134;2023-05-10T00:28:44;1.20;;;1.20;;
71091;SDS011;58751;50.708;7.134;2023-05-10T00:31:09;1.00;;;1.00;;
71091;SDS011;58751;50.708;7.134;2023-05-10T00:33:34;1.10;;;1.00;;
71091;SDS011;58751;50.708;7.134;2023-05-10T00:36:00;1.40;;;0.87;;
71091;SDS011;58751;50.708;7.134;2023-05-10T00:38:25;0.90;;;0.90;;
71091;SDS011;58751;50.708;7.134;2023-05-10T00:40:50;1.20;;;1.10;;
71091;SDS011;58751;50.708;7.134;2023-05-10T00:43:17;1.03;;;1.03;;
71091;SDS011;58751;50.708;7.134;2023-05-10T00:45:42;0.90;;;0.90;;
71091;SDS011;58751;50.708;7.134;2023-05-10T00:48:07;0.40;;;0.40;;
71091;SDS011;58751;50.708;7.134;2023-05-10T00:50:33;0.60;;;0.60;;
71091;SDS011;58751;50.708;7.134;2023-05-10T00:52:58;0.87;;;0.50;;
71091;SDS011;58751;50.708;7.134;2023-05-10T00:55:24;0.53;;;0.53;;
71091;SDS011;58751;50.708;7.134;2023-05-10T00:57:49;0.63;;;0.63;;
71091;SDS011;58751;50.708;7.134;2023-05-10T01:00:16;0.60;;;0.60;;
71091;SDS011;58751;50.708;7.134;2023-05-10T01:02:42;0.80;;;0.80;;
71091;SDS011;58751;50.708;7.134;2023-05-10T01:05:07;1.90;;;0.80;;
71091;SDS011;58751;50.708;7.134;2023-05-10T01:07:33;0.60;;;0.50;;
71091;SDS011;58751;50.708;7.134;2023-05-10T01:09:58;0.60;;;0.60;;
71091;SDS011;58751;50.708;7.134;2023-05-10T01:12:23;1.00;;;1.00;;
71091;SDS011;58751;50.708;7.134;2023-05-10T01:14:48;2.17;;;0.90;;
71091;SDS011;58751;50.708;7.134;2023-05-10T01:17:15;0.60;;;0.50;;
71091;SDS011;58751;50.708;7.134;2023-05-10T01:19:40;1.63;;;0.80;;
71091;SDS011;58751;50.708;7.134;2023-05-10T01:22:07;0.60;;;0.60;;
71091;SDS011;58751;50.708;7.134;2023-05-10T01:27:30;2.80;;;0.70;;
71091;SDS011;58751;50.708;7.134;2023-05-10T01:30:01;0.60;;;0.60;;
71091;SDS011;58751;50.708;7.134;2023-05-10T01:32:32;0.52;;;0.52;;
71091;SDS011;58751;50.708;7.134;2023-05-10T01:35:00;0.65;;;0.63;;
71091;SDS011;58751;50.708;7.134;2023-05-10T01:37:30;0.90;;;0.90;;
71091;SDS011;58751;50.708;7.134;2023-05-10T01:39:58;1.67;;;0.60;;
71091;SDS011;58751;50.708;7.134;2023-05-10T01:42:25;0.98;;;0.98;;
71091;SDS011;58751;50.708;7.134;2023-05-10T01:44:53;1.80;;;1.02;;
71091;SDS011;58751;50.708;7.134;2023-05-10T01:47:25;1.15;;;1.05;;
71091;SDS011;58751;50.708;7.134;2023-05-10T01:49:55;1.00;;;1.00;;
71091;SDS011;58751;50.708;7.134;2023-05-10T01:52:22;0.80;;;0.80;;
71091;SDS011;58751;50.708;7.134;2023-05-10T01:54:53;1.10;;;1.08;;
71091;SDS011;58751;50.708;7.134;2023-05-10T01:57:18;0.90;;;0.90;;
71091;SDS011;58751;50.708;7.134;2023-05-10T01:59:45;0.77;;;0.73;;
71091;SDS011;58751;50.708;7.134;2023-05-10T02:02:12;1.50;;;1.25;;
71091;SDS011;58751;50.708;7.134;2023-05-10T02:04:39;3.35;;;1.20;;
71091;SDS011;58751;50.708;7.134;2023-05-10T02:07:06;1.23;;;1.23;;
71091;SDS011;58751;50.708;7.134;2023-05-10T02:09:33;1.40;;;1.30;;
71091;SDS011;58751;50.708;7.134;2023-05-10T02:11:59;1.40;;;1.30;;
71091;SDS011;58751;50.708;7.134;2023-05-10T02:14:25;1.13;;;0.85;;
71091;SDS011;58751;50.708;7.134;2023-05-10T02:16:51;1.00;;;1.00;;
71091;SDS011;58751;50.708;7.134;2023-05-10T02:19:18;0.90;;;0.80;;
71091;SDS011;58751;50.708;7.134;2023-05-10T02:21:44;0.80;;;0.80;;
71091;SDS011;58751;50.708;7.134;2023-05-10T02:24:11;2.08;;;1.05;;
71091;SDS011;58751;50.708;7.134;2023-05-10T02:26:37;2.85;;;1.17;;
71091;SDS011;58751;50.708;7.134;2023-05-10T02:29:03;3.17;;;1.20;;
71091;SDS011;58751;50.708;7.134;2023-05-10T02:31:29;4.30;;;1.35;;
71091;SDS011;58751;50.708;7.134;2023-05-10T02:33:55;1.10;;;1.00;;
71091;SDS011;58751;50.708;7.134;2023-05-10T02:36:21;0.95;;;0.85;;
71091;SDS011;58751;50.708;7.134;2023-05-10T02:38:47;0.77;;;0.77;;
71091;SDS011;58751;50.708;7.134;2023-05-10T02:41:15;1.75;;;1.10;;
71091;SDS011;58751;50.708;7.134;2023-05-10T02:43:41;1.83;;;1.05;;
71091;SDS011;58751;50.708;7.134;2023-05-10T02:46:06;1.40;;;1.20;;
71091;SDS011;58751;50.708;7.134;2023-05-10T02:48:32;1.93;;;1.40;;
71091;SDS011;58751;50.708;7.134;2023-05-10T02:50:59;1.03;;;0.93;;
71091;SDS011;58751;50.708;7.134;2023-05-10T02:53:28;1.10;;;1.10;;
71091;SDS011;58751;50.708;7.134;2023-05-10T02:55:55;1.38;;;1.00;;
71091;SDS011;58751;50.708;7.134;2023-05-10T02:58:23;1.00;;;0.95;;
71091;SDS011;58751;50.708;7.134;2023-05-10T03:00:48;1.25;;;1.20;;
71091;SDS011;58751;50.708;7.134;2023-05-10T03:03:13;1.23;;;0.83;;
71091;SDS011;58751;50.708;7.134;2023-05-10T03:05:39;0.87;;;0.80;;
71091;SDS011;58751;50.708;7.134;2023-05-10T03:08:04;0.73;;;0.73;;
71091;SDS011;58751;50.708;7.134;2023-05-10T03:10:29;1.17;;;1.00;;
71091;SDS011;58751;50.708;7.134;2023-05-10T03:13:02;1.13;;;0.90;;
71091;SDS011;58751;50.708;7.134;2023-05-10T03:15:33;3.42;;;1.55;;
71091;SDS011;58751;50.708;7.134;2023-05-10T03:18:04;4.05;;;1.10;;
71091;SDS011;58751;50.708;7.134;2023-05-10T03:20:31;1.40;;;1.30;;
71091;SDS011;58751;50.708;7.134;2023-05-10T03:23:01;3.38;;;1.52;;
71091;SDS011;58751;50.708;7.134;2023-05-10T03:25:27;1.60;;;1.50;;
71091;SDS011;58751;50.708;7.134;2023-05-10T03:27:53;1.77;;;1.67;;
71091;SDS011;58751;50.708;7.134;2023-05-10T03:30:18;3.40;;;2.10;;
71091;SDS011;58751;50.708;7.134;2023-05-10T03:32:45;2.80;;;2.30;;
71091;SDS011;58751;50.708;7.134;2023-05-10T03:35:11;2.15;;;1.95;;
71091;SDS011;58751;50.708;7.134;2023-05-10T03:37:37;2.50;;;2.30;;
71091;SDS011;58751;50.708;7.134;2023-05-10T03:40:03;4.07;;;2.13;;
71091;SDS011;58751;50.708;7.134;2023-05-10T03:42:28;3.50;;;2.60;;
71091;SDS011;58751;50.708;7.134;2023-05-10T03:44:53;3.33;;;3.00;;
71091;SDS011;58751;50.708;7.134;2023-05-10T03:47:18;2.83;;;2.63;;
71091;SDS011;58751;50.708;7.134;2023-05-10T03:49:45;3.13;;;2.77;;
71091;SDS011;58751;50.708;7.134;2023-05-10T03:52:10;4.10;;;3.42;;
71091;SDS011;58751;50.708;7.134;2023-05-10T03:54:35;4.30;;;3.70;;
71091;SDS011;58751;50.708;7.134;2023-05-10T03:57:01;3.40;;;3.10;;
71091;SDS011;58751;50.708;7.134;2023-05-10T03:59:26;5.73;;;4.87;;
71091;SDS011;58751;50.708;7.134;2023-05-10T04:01:51;4.37;;;3.90;;
71091;SDS011;58751;50.708;7.134;2023-05-10T04:04:16;4.83;;;4.30;;
71091;SDS011;58751;50.708;7.134;2023-05-10T04:06:43;8.60;;;4.90;;
71091;SDS011;58751;50.708;7.134;2023-05-10T04:09:08;6.20;;;4.45;;
71091;SDS011;58751;50.708;7.134;2023-05-10T04:11:33;6.63;;;6.03;;
71091;SDS011;58751;50.708;7.134;2023-05-10T04:13:59;7.23;;;5.17;;
71091;SDS011;58751;50.708;7.134;2023-05-10T04:16:24;6.17;;;5.23;;
71091;SDS011;58751;50.708;7.134;2023-05-10T04:18:49;7.37;;;5.60;;
71091;SDS011;58751;50.708;7.134;2023-05-10T04:21:14;5.77;;;5.10;;
71091;SDS011;58751;50.708;7.134;2023-05-10T04:23:41;8.57;;;6.20;;
71091;SDS011;58751;50.708;7.134;2023-05-10T04:26:06;10.25;;;7.35;;
71091;SDS011;58751;50.708;7.134;2023-05-10T04:28:31;6.87;;;6.17;;
71091;SDS011;58751;50.708;7.134;2023-05-10T04:31:00;9.80;;;7.53;;
71091;SDS011;58751;50.708;7.134;2023-05-10T04:33:25;9.07;;;7.95;;
71091;SDS011;58751;50.708;7.134;2023-05-10T04:35:51;8.60;;;6.97;;
71091;SDS011;58751;50.708;7.134;2023-05-10T04:38:16;7.83;;;6.47;;
71091;SDS011;58751;50.708;7.134;2023-05-10T04:40:42;10.40;;;7.77;;
71091;SDS011;58751;50.708;7.134;2023-05-10T04:43:07;8.32;;;7.45;;
71091;SDS011;58751;50.708;7.134;2023-05-10T04:45:33;9.37;;;8.30;;
71091;SDS011;58751;50.708;7.134;2023-05-10T04:47:58;8.40;;;6.60;;
71091;SDS011;58751;50.708;7.134;2023-05-10T04:50:23;11.00;;;8.13;;
71091;SDS011;58751;50.708;7.134;2023-05-10T04:52:48;9.80;;;8.80;;
71091;SDS011;58751;50.708;7.134;2023-05-10T04:55:14;9.57;;;8.10;;
71091;SDS011;58751;50.708;7.134;2023-05-10T04:57:40;11.30;;;8.57;;
71091;SDS011;58751;50.708;7.134;2023-05-10T05:00:06;8.48;;;7.57;;
71091;SDS011;58751;50.708;7.134;2023-05-10T05:02:31;13.57;;;8.60;;
71091;SDS011;58751;50.708;7.134;2023-05-10T05:04:57;11.07;;;8.20;;
71091;SDS011;58751;50.708;7.134;2023-05-10T05:07:22;8.93;;;7.60;;
71091;SDS011;58751;50.708;7.134;2023-05-10T05:09:47;9.00;;;7.83;;
71091;SDS011;58751;50.708;7.134;2023-05-10T05:12:12;9.97;;;8.97;;
71091;SDS011;58751;50.708;7.134;2023-05-10T05:14:39;13.83;;;8.20;;
71091;SDS011;58751;50.708;7.134;2023-05-10T05:17:04;8.15;;;7.35;;
71091;SDS011;58751;50.708;7.134;2023-05-10T05:19:30;9.75;;;6.75;;
71091;SDS011;58751;50.708;7.134;2023-05-10T05:21:56;7.43;;;6.50;;
71091;SDS011;58751;50.708;7.134;2023-05-10T05:24:21;9.40;;;7.53;;
71091;SDS011;58751;50.708;7.134;2023-05-10T05:26:46;8.80;;;6.60;;
71091;SDS011;58751;50.708;7.134;2023-05-10T05:29:11;12.63;;;6.30;;
71091;SDS011;58751;50.708;7.134;2023-05-10T05:31:38;11.73;;;8.57;;
71091;SDS011;58751;50.708;7.134;2023-05-10T05:34:03;9.13;;;7.77;;
71091;SDS011;58751;50.708;7.134;2023-05-10T05:36:28;8.40;;;7.47;;
71091;SDS011;58751;50.708;7.134;2023-05-10T05:38:53;10.73;;;6.53;;
71091;SDS011;58751;50.708;7.134;2023-05-10T05:41:19;7.60;;;6.50;;
71091;SDS011;58751;50.708;7.134;2023-05-10T05:43:44;7.40;;;6.30;;
71091;SDS011;58751;50.708;7.134;2023-05-10T05:46:09;7.70;;;6.03;;
71091;SDS011;58751;50.708;7.134;2023-05-10T05:48:36;6.80;;;6.20;;
71091;SDS011;58751;50.708;7.134;2023-05-10T05:51:01;7.72;;;6.40;;
71091;SDS011;58751;50.708;7.134;2023-05-10T05:53:26;8.67;;;6.30;;
71091;SDS011;58751;50.708;7.134;2023-05-10T05:55:51;7.27;;;6.57;;
71091;SDS011;58751;50.708;7.134;2023-05-10T05:58:17;5.73;;;5.23;;
71091;SDS011;58751;50.708;7.134;2023-05-10T06:00:42;6.27;;;5.20;;
71091;SDS011;58751;50.708;7.134;2023-05-10T06:03:07;6.43;;;5.73;;
71091;SDS011;58751;50.708;7.134;2023-05-10T06:05:34;6.20;;;5.60;;
71091;SDS011;58751;50.708;7.134;2023-05-10T06:07:59;11.10;;;6.37;;
71091;SDS011;58751;50.708;7.134;2023-05-10T06:10:24;7.23;;;5.70;;
71091;SDS011;58751;50.708;7.134;2023-05-10T06:12:49;5.70;;;5.20;;
71091;SDS011;58751;50.708;7.134;2023-05-10T06:15:15;6.17;;;5.13;;
71091;SDS011;58751;50.708;7.134;2023-05-10T06:17:40;7.00;;;5.30;;
71091;SDS011;58751;50.708;7.134;2023-05-10T06:20:06;5.50;;;5.00;;
71091;SDS011;58751;50.708;7.134;2023-05-10T06:22:32;6.33;;;5.77;;
71091;SDS011;58751;50.708;7.134;2023-05-10T06:24:58;5.87;;;4.93;;
71091;SDS011;58751;50.708;7.134;2023-05-10T06:27:23;7.93;;;5.07;;
71091;SDS011;58751;50.708;7.134;2023-05-10T06:29:48;6.60;;;5.17;;
71091;SDS011;58751;50.708;7.134;2023-05-10T06:32:13;7.70;;;6.93;;
71091;SDS011;58751;50.708;7.134;2023-05-10T06:34:38;4.93;;;4.53;;
71091;SDS011;58751;50.708;7.134;2023-05-10T06:37:03;5.50;;;4.60;;
71091;SDS011;58751;50.708;7.134;2023-05-10T06:39:30;5.07;;;4.67;;
71091;SDS011;58751;50.708;7.134;2023-05-10T06:41:55;5.33;;;4.83;;
71091;SDS011;58751;50.708;7.134;2023-05-10T06:44:20;5.83;;;5.00;;
71091;SDS011;58751;50.708;7.134;2023-05-10T06:46:51;5.43;;;4.90;;
71091;SDS011;58751;50.708;7.134;2023-05-10T06:49:16;7.53;;;5.00;;
71091;SDS011;58751;50.708;7.134;2023-05-10T06:51:41;5.40;;;4.37;;
71091;SDS011;58751;50.708;7.134;2023-05-10T06:54:06;5.77;;;5.17;;
71091;SDS011;58751;50.708;7.134;2023-05-10T06:56:33;6.43;;;5.03;;
71091;SDS011;58751;50.708;7.134;2023-05-10T06:58:58;7.37;;;5.13;;
71091;SDS011;58751;50.708;7.134;2023-05-10T07:01:23;7.60;;;5.60;;
71091;SDS011;58751;50.708;7.134;2023-05-10T07:03:49;5.40;;;4.80;;
71091;SDS011;58751;50.708;7.134;2023-05-10T07:06:14;7.50;;;5.23;;
71091;SDS011;58751;50.708;7.134;2023-05-10T07:08:39;5.97;;;4.60;;
71091;SDS011;58751;50.708;7.134;2023-05-10T07:11:05;5.37;;;4.07;;
71091;SDS011;58751;50.708;7.134;2023-05-10T07:13:31;7.73;;;6.00;;
71091;SDS011;58751;50.708;7.134;2023-05-10T07:15:57;5.17;;;4.67;;
71091;SDS011;58751;50.708;7.134;2023-05-10T07:18:22;4.90;;;4.47;;
71091;SDS011;58751;50.708;7.134;2023-05-10T07:20:47;6.00;;;4.87;;
71091;SDS011;58751;50.708;7.134;2023-05-10T07:23:12;5.10;;;4.43;;
71091;SDS011;58751;50.708;7.134;2023-05-10T07:25:38;5.47;;;4.70;;
71091;SDS011;58751;50.708;7.134;2023-05-10T07:28:03;7.00;;;4.77;;
71091;SDS011;58751;50.708;7.134;2023-05-10T07:30:30;10.20;;;5.27;;
71091;SDS011;58751;50.708;7.134;2023-05-10T07:32:55;4.40;;;3.80;;
71091;SDS011;58751;50.708;7.134;2023-05-10T07:35:20;7.20;;;4.57;;
71091;SDS011;58751;50.708;7.134;2023-05-10T07:37:45;4.10;;;3.70;;
71091;SDS011;58751;50.708;7.134;2023-05-10T07:40:10;3.70;;;3.40;;
71091;SDS011;58751;50.708;7.134;2023-05-10T07:42:36;5.27;;;4.30;;
71091;SDS011;58751;50.708;7.134;2023-05-10T07:45:01;3.80;;;3.50;;
71091;SDS011;58751;50.708;7.134;2023-05-10T07:47:27;5.43;;;4.23;;
71091;SDS011;58751;50.708;7.134;2023-05-10T07:49:53;7.60;;;3.93;;
71091;SDS011;58751;50.708;7.134;2023-05-10T07:52:18;3.73;;;3.43;;
71091;SDS011;58751;50.708;7.134;2023-05-10T07:54:43;6.10;;;3.90;;
71091;SDS011;58751;50.708;7.134;2023-05-10T07:57:08;4.33;;;3.80;;
71091;SDS011;58751;50.708;7.134;2023-05-10T07:59:33;5.03;;;4.00;;
71091;SDS011;58751;50.708;7.134;2023-05-10T08:01:59;6.17;;;4.57;;
71091;SDS011;58751;50.708;7.134;2023-05-10T08:04:25;4.20;;;3.80;;
71091;SDS011;58751;50.708;7.134;2023-05-10T08:06:50;4.03;;;3.63;;
71091;SDS011;58751;50.708;7.134;2023-05-10T08:09:16;5.20;;;4.37;;
71091;SDS011;58751;50.708;7.134;2023-05-10T08:11:41;4.57;;;3.70;;
71091;SDS011;58751;50.708;7.134;2023-05-10T08:14:06;4.50;;;4.10;;
71091;SDS011;58751;50.708;7.134;2023-05-10T08:16:31;3.90;;;3.60;;
71091;SDS011;58751;50.708;7.134;2023-05-10T08:18:57;3.73;;;3.43;;
71091;SDS011;58751;50.708;7.134;2023-05-10T08:21:23;4.07;;;3.27;;
71091;SDS011;58751;50.708;7.134;2023-05-10T08:23:48;3.40;;;3.20;;
71091;SDS011;58751;50.708;7.134;2023-05-10T08:26:14;2.80;;;2.60;;
71091;SDS011;58751;50.708;7.134;2023-05-10T08:28:39;2.70;;;2.50;;
71091;SDS011;58751;50.708;7.134;2023-05-10T08:31:04;2.47;;;2.27;;
71091;SDS011;58751;50.708;7.134;2023-05-10T08:33:30;2.80;;;2.50;;
71091;SDS011;58751;50.708;7.134;2023-05-10T08:35:55;2.67;;;2.47;;
71091;SDS011;58751;50.708;7.134;2023-05-10T08:38:21;2.87;;;2.43;;
71091;SDS011;58751;50.708;7.134;2023-05-10T08:40:47;2.70;;;2.50;;
71091;SDS011;58751;50.708;7.134;2023-05-10T08:43:13;3.00;;;2.70;;
71091;SDS011;58751;50.708;7.134;2023-05-10T08:45:39;2.97;;;2.27;;
71091;SDS011;58751;50.708;7.134;2023-05-10T08:48:05;3.77;;;3.40;;
71091;SDS011;58751;50.708;7.134;2023-05-10T08:50:31;3.90;;;2.70;;
71091;SDS011;58751;50.708;7.134;2023-05-10T08:52:57;3.00;;;2.70;;
71091;SDS011;58751;50.708;7.134;2023-05-10T08:55:25;2.87;;;2.63;;
71091;SDS011;58751;50.708;7.134;2023-05-10T08:57:50;2.83;;;2.63;;
71091;SDS011;58751;50.708;7.134;2023-05-10T09:00:16;2.30;;;2.10;;
71091;SDS011;58751;50.708;7.134;2023-05-10T09:02:42;2.30;;;1.67;;
71091;SDS011;58751;50.708;7.134;2023-05-10T09:05:08;2.60;;;2.40;;
71091;SDS011;58751;50.708;7.134;2023-05-10T09:07:33;1.97;;;1.40;;
71091;SDS011;58751;50.708;7.134;2023-05-10T09:09:58;2.00;;;1.43;;
71091;SDS011;58751;50.708;7.134;2023-05-10T09:12:25;1.03;;;0.90;;
71091;SDS011;58751;50.708;7.134;2023-05-10T09:14:51;1.03;;;0.93;;
71091;SDS011;58751;50.708;7.134;2023-05-10T09:17:17;1.10;;;1.00;;
71091;SDS011;58751;50.708;7.134;2023-05-10T09:19:42;1.20;;;0.60;;
71091;SDS011;58751;50.708;7.134;2023-05-10T09:22:07;1.13;;;1.00;;
71091;SDS011;58751;50.708;7.134;2023-05-10T09:24:33;0.70;;;0.70;;
71091;SDS011;58751;50.708;7.134;2023-05-10T09:26:58;1.73;;;0.70;;
71091;SDS011;58751;50.708;7.134;2023-05-10T09:29:25;1.97;;;1.10;;
71091;SDS011;58751;50.708;7.134;2023-05-10T09:31:50;1.93;;;1.10;;
71091;SDS011;58751;50.708;7.134;2023-05-10T09:34:16;1.43;;;1.30;;
71091;SDS011;58751;50.708;7.134;2023-05-10T09:36:50;1.23;;;1.10;;
71091;SDS011;58751;50.708;7.134;2023-05-10T09:39:15;4.00;;;1.23;;
71091;SDS011;58751;50.708;7.134;2023-05-10T09:41:40;1.53;;;0.90;;
71091;SDS011;58751;50.708;7.134;2023-05-10T09:44:07;1.83;;;1.23;;
71091;SDS011;58751;50.708;7.134;2023-05-10T09:46:35;1.70;;;1.00;;
71091;SDS011;58751;50.708;7.134;2023-05-10T09:49:01;0.80;;;0.80;;
71091;SDS011;58751;50.708;7.134;2023-05-10T09:51:26;1.67;;;0.83;;
71091;SDS011;58751;50.708;7.134;2023-05-10T09:54:08;1.23;;;1.00;;
71091;SDS011;58751;50.708;7.134;2023-05-10T09:56:33;1.63;;;0.80;;
71091;SDS011;58751;50.708;7.134;2023-05-10T09:59:01;0.80;;;0.80;;
71091;SDS011;58751;50.708;7.134;2023-05-10T10:01:27;2.73;;;1.00;;
71091;SDS011;58751;50.708;7.134;2023-05-10T10:03:54;1.40;;;0.80;;
71091;SDS011;58751;50.708;7.134;2023-05-10T10:06:19;0.90;;;0.70;;
71091;SDS011;58751;50.708;7.134;2023-05-10T10:08:44;0.97;;;0.80;;
71091;SDS011;58751;50.708;7.134;2023-05-10T10:11:09;1.60;;;1.30;;
71091;SDS011;58751;50.708;7.134;2023-05-10T10:13:35;0.90;;;0.90;;
71091;SDS011;58751;50.708;7.134;2023-05-10T10:16:00;0.90;;;0.90;;
71091;SDS011;58751;50.708;7.134;2023-05-10T10:18:25;1.80;;;1.30;;
71091;SDS011;58751;50.708;7.134;2023-05-10T10:20:52;1.23;;;1.13;;
71091;SDS011;58751;50.708;7.134;2023-05-10T10:23:17;1.50;;;1.07;;
71091;SDS011;58751;50.708;7.134;2023-05-10T10:25:42;1.40;;;1.30;;
71091;SDS011;58751;50.708;7.134;2023-05-10T10:28:10;1.20;;;1.20;;
71091;SDS011;58751;50.708;7.134;2023-05-10T10:30:40;1.87;;;1.77;;
71091;SDS011;58751;50.708;7.134;2023-05-10T10:33:11;2.43;;;2.23;;
71091;SDS011;58751;50.708;7.134;2023-05-10T10:35:38;2.50;;;2.30;;
71091;SDS011;58751;50.708;7.134;2023-05-10T10:38:05;2.50;;;2.30;;
71091;SDS011;58751;50.708;7.134;2023-05-10T10:40:33;1.97;;;1.73;;
71091;SDS011;58751;50.708;7.134;2023-05-10T10:42:59;2.10;;;1.90;;
71091;SDS011;58751;50.708;7.134;2023-05-10T10:45:43;1.50;;;1.40;;
71091;SDS011;58751;50.708;7.134;2023-05-10T10:48:21;1.87;;;1.70;;
71091;SDS011;58751;50.708;7.134;2023-05-10T10:50:46;2.93;;;2.50;;
71091;SDS011;58751;50.708;7.134;2023-05-10T10:53:13;4.40;;;2.73;;
71091;SDS011;58751;50.708;7.134;2023-05-10T10:55:44;2.30;;;2.10;;
71091;SDS011;58751;50.708;7.134;2023-05-10T10:58:10;2.00;;;1.77;;
71091;SDS011;58751;50.708;7.134;2023-05-10T11:00:36;3.03;;;2.40;;
71091;SDS011;58751;50.708;7.134;2023-05-10T11:03:03;2.73;;;2.13;;
71091;SDS011;58751;50.708;7.134;2023-05-10T11:05:38;2.40;;;2.20;;
71091;SDS011;58751;50.708;7.134;2023-05-10T11:08:08;4.47;;;2.20;;
71091;SDS011;58751;50.708;7.134;2023-05-10T11:10:35;2.93;;;2.30;;
71091;SDS011;58751;50.708;7.134;2023-05-10T11:13:01;1.93;;;1.50;;
71091;SDS011;58751;50.708;7.134;2023-05-10T11:15:29;1.23;;;1.00;;
71091;SDS011;58751;50.708;7.134;2023-05-10T11:17:54;1.47;;;1.37;;
71091;SDS011;58751;50.708;7.134;2023-05-10T11:20:20;1.03;;;1.03;;
71091;SDS011;58751;50.708;7.134;2023-05-10T11:22:49;0.90;;;0.90;;
71091;SDS011;58751;50.708;7.134;2023-05-10T11:25:14;0.90;;;0.90;;
71091;SDS011;58751;50.708;7.134;2023-05-10T11:27:41;0.60;;;0.60;;
71091;SDS011;58751;50.708;7.134;2023-05-10T11:30:06;0.60;;;0.60;;
71091;SDS011;58751;50.708;7.134;2023-05-10T11:32:32;1.20;;;0.73;;
71091;SDS011;58751;50.708;7.134;2023-05-10T11:34:58;0.80;;;0.80;;
71091;SDS011;58751;50.708;7.134;2023-05-10T11:37:23;0.77;;;0.77;;
71091;SDS011;58751;50.708;7.134;2023-05-10T11:39:48;3.80;;;0.73;;
71091;SDS011;58751;50.708;7.134;2023-05-10T11:42:13;0.90;;;0.70;;
71091;SDS011;58751;50.708;7.134;2023-05-10T11:44:40;0.73;;;0.70;;
71091;SDS011;58751;50.708;7.134;2023-05-10T11:47:05;0.50;;;0.50;;
71091;SDS011;58751;50.708;7.134;2023-05-10T11:49:30;1.70;;;0.97;;
71091;SDS011;58751;50.708;7.134;2023-05-10T11:52:03;0.67;;;0.60;;
71091;SDS011;58751;50.708;7.134;2023-05-10T11:54:28;0.80;;;0.70;;
71091;SDS011;58751;50.708;7.134;2023-05-10T11:56:53;0.70;;;0.70;;
71091;SDS011;58751;50.708;7.134;2023-05-10T11:59:19;0.63;;;0.60;;
71091;SDS011;58751;50.708;7.134;2023-05-10T12:01:45;0.90;;;0.60;;
71091;SDS011;58751;50.708;7.134;2023-05-10T12:04:10;0.67;;;0.53;;
71091;SDS011;58751;50.708;7.134;2023-05-10T12:06:37;0.90;;;0.90;;
71091;SDS011;58751;50.708;7.134;2023-05-10T12:09:05;1.00;;;0.80;;
71091;SDS011;58751;50.708;7.134;2023-05-10T12:11:31;2.13;;;0.70;;
71091;SDS011;58751;50.708;7.134;2023-05-10T12:13:56;1.20;;;0.90;;
71091;SDS011;58751;50.708;7.134;2023-05-10T12:16:22;1.23;;;0.83;;
71091;SDS011;58751;50.708;7.134;2023-05-10T12:18:49;3.50;;;0.70;;
71091;SDS011;58751;50.708;7.134;2023-05-10T12:21:15;1.10;;;0.97;;
71091;SDS011;58751;50.708;7.134;2023-05-10T12:23:40;1.33;;;1.20;;
71091;SDS011;58751;50.708;7.134;2023-05-10T12:26:05;1.40;;;1.30;;
71091;SDS011;58751;50.708;7.134;2023-05-10T12:28:31;1.23;;;1.13;;
71091;SDS011;58751;50.708;7.134;2023-05-10T12:30:57;1.33;;;1.30;;
71091;SDS011;58751;50.708;7.134;2023-05-10T12:33:22;1.13;;;1.13;;
71091;SDS011;58751;50.708;7.134;2023-05-10T12:35:50;1.40;;;1.30;;
71091;SDS011;58751;50.708;7.134;2023-05-10T12:38:25;2.03;;;1.50;;
71091;SDS011;58751;50.708;7.134;2023-05-10T12:40:50;2.00;;;1.77;;
71091;SDS011;58751;50.708;7.134;2023-05-10T12:43:15;3.93;;;1.40;;
71091;SDS011;58751;50.708;7.134;2023-05-10T12:45:40;2.03;;;1.20;;
71091;SDS011;58751;50.708;7.134;2023-05-10T12:48:06;0.83;;;0.83;;
71091;SDS011;58751;50.708;7.134;2023-05-10T12:50:31;0.83;;;0.83;;
71091;SDS011;58751;50.708;7.134;2023-05-10T12:52:57;0.80;;;0.80;;
71091;SDS011;58751;50.708;7.134;2023-05-10T12:55:23;1.67;;;0.90;;
71091;SDS011;58751;50.708;7.134;2023-05-10T12:57:48;0.70;;;0.70;;
71091;SDS011;58751;50.708;7.134;2023-05-10T13:00:14;0.80;;;0.80;;
71091;SDS011;58751;50.708;7.134;2023-05-10T13:02:39;1.00;;;1.00;;
71091;SDS011;58751;50.708;7.134;2023-05-10T13:05:05;1.13;;;1.13;;
71091;SDS011;58751;50.708;7.134;2023-05-10T13:07:30;0.97;;;0.97;;
71091;SDS011;58751;50.708;7.134;2023-05-10T13:09:56;1.33;;;1.27;;
71091;SDS011;58751;50.708;7.134;2023-05-10T13:12:22;1.87;;;1.47;;
71091;SDS011;58751;50.708;7.134;2023-05-10T13:14:47;1.70;;;1.30;;
71091;SDS011;58751;50.708;7.134;2023-05-10T13:17:12;2.20;;;2.00;;
71091;SDS011;58751;50.708;7.134;2023-05-10T13:19:37;1.37;;;1.33;;
71091;SDS011;58751;50.708;7.134;2023-05-10T13:22:03;1.10;;;1.10;;
71091;SDS011;58751;50.708;7.134;2023-05-10T13:24:28;1.60;;;1.50;;
71091;SDS011;58751;50.708;7.134;2023-05-10T13:26:54;3.50;;;1.60;;
71091;SDS011;58751;50.708;7.134;2023-05-10T13:29:20;2.40;;;2.20;;
71091;SDS011;58751;50.708;7.134;2023-05-10T13:31:45;3.13;;;2.00;;
71091;SDS011;58751;50.708;7.134;2023-05-10T13:34:10;1.93;;;1.83;;
71091;SDS011;58751;50.708;7.134;2023-05-10T13:36:35;1.87;;;1.77;;
71091;SDS011;58751;50.708;7.134;2023-05-10T13:39:00;2.03;;;1.80;;
71091;SDS011;58751;50.708;7.134;2023-05-10T13:41:26;2.03;;;1.70;;
71091;SDS011;58751;50.708;7.134;2023-05-10T13:43:52;4.43;;;1.80;;
71091;SDS011;58751;50.708;7.134;2023-05-10T13:46:17;2.03;;;1.93;;
71091;SDS011;58751;50.708;7.134;2023-05-10T13:48:43;3.37;;;2.40;;
71091;SDS011;58751;50.708;7.134;2023-05-10T13:51:08;2.17;;;2.07;;
71091;SDS011;58751;50.708;7.134;2023-05-10T13:53:33;2.23;;;2.03;;
71091;SDS011;58751;50.708;7.134;2023-05-10T13:55:58;2.47;;;2.27;;
71091;SDS011;58751;50.708;7.134;2023-05-10T13:58:23;4.00;;;2.67;;
71091;SDS011;58751;50.708;7.134;2023-05-10T14:00:50;2.53;;;2.33;;
71091;SDS011;58751;50.708;7.134;2023-05-10T14:03:15;3.40;;;2.30;;
71091;SDS011;58751;50.708;7.134;2023-05-10T14:05:40;2.87;;;2.67;;
71091;SDS011;58751;50.708;7.134;2023-05-10T14:08:06;4.07;;;3.67;;
71091;SDS011;58751;50.708;7.134;2023-05-10T14:10:31;3.00;;;2.80;;
71091;SDS011;58751;50.708;7.134;2023-05-10T14:12:56;3.10;;;2.60;;
71091;SDS011;58751;50.708;7.134;2023-05-10T14:15:21;3.17;;;2.97;;
71091;SDS011;58751;50.708;7.134;2023-05-10T14:17:48;2.63;;;2.43;;
71091;SDS011;58751;50.708;7.134;2023-05-10T14:20:13;4.50;;;3.00;;
71091;SDS011;58751;50.708;7.134;2023-05-10T14:22:38;4.10;;;2.73;;
71091;SDS011;58751;50.708;7.134;2023-05-10T14:25:04;4.63;;;3.30;;
71091;SDS011;58751;50.708;7.134;2023-05-10T14:27:29;4.20;;;3.90;;
71091;SDS011;58751;50.708;7.134;2023-05-10T14:29:54;6.30;;;4.30;;
71091;SDS011;58751;50.708;7.134;2023-05-10T14:32:20;3.50;;;3.13;;
71091;SDS011;58751;50.708;7.134;2023-05-10T14:34:46;4.10;;;3.33;;
71091;SDS011;58751;50.708;7.134;2023-05-10T14:37:12;3.38;;;3.17;;
71091;SDS011;58751;50.708;7.134;2023-05-10T14:39:38;4.63;;;4.22;;
71091;SDS011;58751;50.708;7.134;2023-05-10T14:42:03;4.33;;;3.93;;
71091;SDS011;58751;50.708;7.134;2023-05-10T14:44:28;3.23;;;2.93;;